Time;durP1;ratioP1;P1;durP2;ratioP2;P2;SDS_P1;SDS_P2;PMS_P1;PMS_P2;Temp;Humidity;BMP_temperature;BMP_pressure;BME280_temperature;BME280_humidity;BME280_pressure;Samples;Min_cycle;Max_cycle;Signal;HPM_P1;HPM_P2
2023/07/22 00:02:16;;;;;;;1999.90;999.90;;;;;;;15.77;100.00;94124.94;5084981;28;20161;-86
2023/07/22 00:04:41;;;;;;;1999.90;999.90;;;;;;;15.77;100.00;94125.69;5084429;28;20197;-81
2023/07/22 00:07:06;;;;;;;1999.90;999.90;;;;;;;15.72;100.00;94140.09;5084657;28;20165;-82
2023/07/22 00:09:33;;;;;;;1999.90;999.90;;;;;;;15.75;100.00;94138.38;5084047;28;20172;-87
2023/07/22 00:11:59;;;;;;;1999.90;999.90;;;;;;;15.73;100.00;94130.59;5084891;28;20232;-80
2023/07/22 00:14:24;;;;;;;1999.90;999.90;;;;;;;15.73;100.00;94130.59;5084602;28;20211;-83
2023/07/22 00:16:50;;;;;;;1999.90;999.90;;;;;;;15.70;100.00;94131.53;5084091;28;20171;-87
2023/07/22 00:19:15;;;;;;;1999.90;999.90;;;;;;;15.62;100.00;94141.34;5084049;28;20165;-86
2023/07/22 00:21:40;;;;;;;1999.90;999.90;;;;;;;15.58;100.00;94146.28;5083870;28;20179;-82
2023/07/22 00:24:06;;;;;;;1999.90;999.90;;;;;;;15.51;100.00;94141.09;5083919;28;20265;-80
2023/07/22 00:26:31;;;;;;;1999.90;999.90;;;;;;;15.48;100.00;94139.28;5084407;28;20166;-83
2023/07/22 00:28:56;;;;;;;1999.90;999.90;;;;;;;15.42;100.00;94143.91;5083778;28;20304;-75
2023/07/22 00:31:22;;;;;;;1999.90;999.90;;;;;;;15.44;100.00;94138.69;5084270;28;20169;-78
2023/07/22 00:33:47;;;;;;;1999.90;999.90;;;;;;;15.43;100.00;94131.66;5084299;28;20165;-76
2023/07/22 00:36:12;;;;;;;1999.90;999.90;;;;;;;15.40;100.00;94135.34;5084197;28;20165;-77
2023/07/22 00:38:39;;;;;;;1999.90;999.90;;;;;;;15.38;100.00;94132.31;5083658;28;20176;-78
2023/07/22 00:41:05;;;;;;;1999.90;999.90;;;;;;;15.34;100.00;94119.91;5084200;28;20169;-78
2023/07/22 00:43:31;;;;;;;1999.90;999.90;;;;;;;15.26;100.00;94129.72;5083622;28;20212;-77
2023/07/22 00:45:57;;;;;;;1999.90;999.90;;;;;;;15.20;100.00;94132.34;5084614;28;20165;-82
2023/07/22 00:48:22;;;;;;;1999.90;999.90;;;;;;;15.15;100.00;94119.19;5083589;28;20161;-82
2023/07/22 00:50:48;;;;;;;1999.90;999.90;;;;;;;15.13;100.00;94118.91;5083397;28;20165;-81
2023/07/22 00:53:14;;;;;;;1999.90;999.90;;;;;;;15.09;100.00;94104.56;5083430;28;20259;-86
2023/07/22 00:55:42;;;;;;;1999.90;999.90;;;;;;;15.08;100.00;94105.78;5084209;28;20201;-84
2023/07/22 00:58:07;;;;;;;1999.90;999.90;;;;;;;15.08;100.00;94108.53;5083771;28;20181;-79
2023/07/22 01:00:33;;;;;;;1999.90;999.90;;;;;;;15.05;100.00;94098.44;5083885;28;20201;-80
2023/07/22 01:02:59;;;;;;;1999.90;999.90;;;;;;;15.02;100.00;94091.16;5083567;28;20261;-81
2023/07/22 01:05:26;;;;;;;1999.90;999.90;;;;;;;15.00;100.00;94079.84;5083483;28;20165;-81
2023/07/22 01:07:52;;;;;;;1999.90;999.90;;;;;;;14.99;100.00;94069.28;5083680;28;20176;-82
2023/07/22 01:10:18;;;;;;;1999.90;999.90;;;;;;;14.92;100.00;94061.38;5083901;28;20173;-80
2023/07/22 01:12:44;;;;;;;1999.90;999.90;;;;;;;14.91;100.00;94055.13;5083424;28;20178;-81
2023/07/22 01:15:10;;;;;;;1999.90;999.90;;;;;;;14.89;100.00;94057.56;5083821;28;20169;-78
2023/07/22 01:17:37;;;;;;;1999.90;999.90;;;;;;;14.85;100.00;94056.97;5083849;28;20180;-81
2023/07/22 01:20:03;;;;;;;1999.90;999.90;;;;;;;14.80;100.00;94049.38;5083395;28;20241;-80
2023/07/22 01:22:29;;;;;;;1999.90;999.90;;;;;;;14.78;100.00;94037.28;5083872;28;20207;-80
2023/07/22 01:24:55;;;;;;;1999.90;999.90;;;;;;;14.78;100.00;94049.06;5083911;28;20200;-77
2023/07/22 01:27:21;;;;;;;1999.90;999.90;;;;;;;14.79;100.00;94041.59;5083440;28;20169;-78
2023/07/22 01:29:46;;;;;;;1999.90;999.90;;;;;;;14.77;100.00;94036.53;5083247;28;20173;-78
2023/07/22 01:32:11;;;;;;;1999.90;999.90;;;;;;;14.74;100.00;94033.94;5083209;28;20169;-77
2023/07/22 01:34:37;;;;;;;1999.90;999.90;;;;;;;14.75;100.00;94035.50;5085084;28;20174;-78
2023/07/22 01:37:04;;;;;;;1999.90;999.90;;;;;;;14.76;100.00;94024.03;5086789;28;20173;-79
2023/07/22 01:39:29;;;;;;;1999.90;999.90;;;;;;;14.77;100.00;94022.03;5087210;28;20193;-77
2023/07/22 01:41:55;;;;;;;1999.90;999.90;;;;;;;14.78;100.00;94001.56;5086802;28;20234;-79
2023/07/22 01:44:20;;;;;;;1999.90;999.90;;;;;;;14.76;100.00;93991.06;5087619;28;20224;-84
2023/07/22 01:46:46;;;;;;;1999.90;999.90;;;;;;;14.75;100.00;93984.00;5086753;28;20177;-83
2023/07/22 01:49:12;;;;;;;1999.90;999.90;;;;;;;14.78;100.00;93974.84;5086772;28;20169;-82
2023/07/22 01:51:38;;;;;;;1999.90;999.90;;;;;;;14.86;100.00;93965.03;5087078;28;20169;-81
2023/07/22 01:54:04;;;;;;;1999.90;999.90;;;;;;;14.91;100.00;93956.16;5086383;28;20351;-81
2023/07/22 01:56:30;;;;;;;1999.90;999.90;;;;;;;14.91;100.00;93956.16;5086471;28;20201;-81
2023/07/22 01:58:55;;;;;;;1999.90;999.90;;;;;;;14.95;100.00;93945.75;5087038;28;20205;-80
2023/07/22 02:01:20;;;;;;;1999.90;999.90;;;;;;;15.00;100.00;93944.34;5087019;28;20250;-80
2023/07/22 02:03:46;;;;;;;1999.90;999.90;;;;;;;14.99;100.00;93940.06;5086256;28;20213;-78
2023/07/22 02:06:12;;;;;;;1999.90;999.90;;;;;;;15.00;100.00;93939.63;5087192;28;20196;-80
2023/07/22 02:08:37;;;;;;;1999.90;999.90;;;;;;;15.00;100.00;93945.09;5086223;28;20214;-80
2023/07/22 02:11:08;;;;;;;1999.90;999.90;;;;;;;14.97;100.00;93954.28;5086458;28;20169;-81
2023/07/22 02:13:35;;;;;;;1999.90;999.90;;;;;;;14.96;100.00;93969.28;5086204;28;20204;-80
2023/07/22 02:16:01;;;;;;;1999.90;999.90;;;;;;;14.97;100.00;93976.28;5086742;28;20201;-82
2023/07/22 02:18:27;;;;;;;1999.90;999.90;;;;;;;14.94;100.00;93982.69;5086538;28;20169;-82
2023/07/22 02:20:53;;;;;;;1999.90;999.90;;;;;;;14.94;100.00;93995.72;5086567;28;20196;-79
2023/07/22 02:23:19;;;;;;;1999.90;999.90;;;;;;;14.92;100.00;94001.66;5085918;28;20197;-80
2023/07/22 02:25:48;;;;;;;1999.90;999.90;;;;;;;14.90;100.00;94004.09;5086360;28;20290;-79
2023/07/22 02:28:13;;;;;;;1999.90;999.90;;;;;;;14.90;100.00;93998.59;5085888;28;20241;-78
2023/07/22 02:30:39;;;;;;;1999.90;999.90;;;;;;;14.94;100.00;93999.19;5085973;28;20223;-78
2023/07/22 02:33:05;;;;;;;1999.90;999.90;;;;;;;14.90;100.00;94004.09;5085859;28;20180;-83
2023/07/22 02:35:30;;;;;;;1999.90;999.90;;;;;;;14.86;100.00;94009.00;5086136;28;20237;-82
2023/07/22 02:37:56;;;;;;;1999.90;999.90;;;;;;;14.84;100.00;94021.69;5086703;28;20173;-83
2023/07/22 02:40:21;;;;;;;1999.90;999.90;;;;;;;14.81;100.00;94017.91;5086476;28;20169;-84
2023/07/22 02:42:46;;;;;;;1999.90;999.90;;;;;;;14.82;100.00;94024.91;5085564;28;20177;-80
2023/07/22 02:45:12;;;;;;;1999.90;999.90;;;;;;;14.86;100.00;94025.50;5084673;28;20168;-81
2023/07/22 02:47:38;;;;;;;1999.90;999.90;;;;;;;14.89;100.00;94030.06;5085417;28;20172;-82
2023/07/22 02:50:04;;;;;;;1999.90;999.90;;;;;;;14.92;100.00;94023.66;5085492;28;20193;-83
2023/07/22 02:52:30;;;;;;;1999.90;999.90;;;;;;;14.95;100.00;94028.25;5085854;28;20244;-81
2023/07/22 02:55:05;;;;;;;1999.90;999.90;;;;;;;14.96;100.00;94027.00;5085996;28;20169;-82
2023/07/22 02:57:30;;;;;;;1999.90;999.90;;;;;;;14.97;100.00;94023.03;5085361;28;20161;-80
2023/07/22 02:59:56;;;;;;;1999.90;999.90;;;;;;;14.96;100.00;94031.72;5085761;28;20196;-82
2023/07/22 03:02:21;;;;;;;1999.90;999.90;;;;;;;14.93;100.00;94041.66;5086035;28;20165;-83
2023/07/22 03:04:47;;;;;;;1999.90;999.90;;;;;;;14.91;100.00;94037.88;5085204;28;20205;-80
2023/07/22 03:07:12;;;;;;;1999.90;999.90;;;;;;;14.85;100.00;94034.97;5085183;28;20170;-80
2023/07/22 03:09:37;;;;;;;1999.90;999.90;;;;;;;14.80;100.00;94043.88;5085612;28;20203;-81
2023/07/22 03:12:03;;;;;;;1999.90;999.90;;;;;;;14.78;100.00;94035.31;5085010;28;20177;-79
2023/07/22 03:14:29;;;;;;;1999.90;999.90;;;;;;;14.77;100.00;94038.53;5084904;28;20166;-80
2023/07/22 03:16:54;;;;;;;1999.90;999.90;;;;;;;14.81;100.00;94028.13;5084891;28;20176;-78
2023/07/22 03:19:19;;;;;;;1999.90;999.90;;;;;;;14.75;100.00;94040.97;5085165;28;20172;-78
2023/07/22 03:21:45;;;;;;;1999.90;999.90;;;;;;;14.70;100.00;94039.63;5085165;28;20295;-78
2023/07/22 03:24:10;;;;;;;1999.90;999.90;;;;;;;14.70;100.00;94042.38;5084957;28;20197;-79
2023/07/22 03:26:35;;;;;;;1999.90;999.90;;;;;;;14.73;100.00;94037.94;5085049;28;20189;-78
2023/07/22 03:29:01;;;;;;;1999.90;999.90;;;;;;;14.71;100.00;94030.13;5084604;28;20165;-78
2023/07/22 03:31:26;;;;;;;1999.90;999.90;;;;;;;14.70;100.00;94038.84;5084701;28;20204;-78
2023/07/22 03:33:52;;;;;;;1999.90;999.90;;;;;;;14.67;100.00;94029.53;5084743;28;20213;-82
2023/07/22 03:36:17;;;;;;;1999.90;999.90;;;;;;;14.69;100.00;94038.09;5084297;28;20245;-82
2023/07/22 03:38:43;;;;;;;1999.90;999.90;;;;;;;14.71;100.00;94030.13;5084511;28;20169;-82
2023/07/22 03:41:08;;;;;;;1999.90;999.90;;;;;;;14.77;100.00;94022.03;5084958;28;20165;-77
2023/07/22 03:43:33;;;;;;;1999.90;999.90;;;;;;;14.80;100.00;94021.88;5084497;28;20194;-77
2023/07/22 03:45:59;;;;;;;1999.90;999.90;;;;;;;14.85;100.00;94018.50;5084987;28;20165;-76
2023/07/22 03:48:24;;;;;;;1999.90;999.90;;;;;;;14.92;100.00;94023.66;5084913;28;20168;-77
2023/07/22 03:50:50;;;;;;;1999.90;999.90;;;;;;;15.00;100.00;94019.34;5084629;28;20176;-77
2023/07/22 03:53:15;;;;;;;1999.90;999.90;;;;;;;15.10;100.00;94017.31;5084035;28;20213;-77
2023/07/22 03:55:41;;;;;;;1999.90;999.90;;;;;;;15.16;100.00;94016.19;5084832;28;20181;-77
2023/07/22 03:58:06;;;;;;;1999.90;999.90;;;;;;;15.25;100.00;94029.94;5084614;28;20236;-78
2023/07/22 04:00:31;;;;;;;1999.90;999.90;;;;;;;15.36;100.00;94027.44;5083991;28;20193;-77
2023/07/22 04:02:57;;;;;;;1999.90;999.90;;;;;;;15.50;100.00;94035.03;5084162;28;20170;-76
2023/07/22 04:05:22;;;;;;;1999.90;999.90;;;;;;;15.68;100.00;94045.16;5083758;28;20177;-76
2023/07/22 04:07:47;;;;;;;1999.90;999.90;;;;;;;15.86;100.00;94051.31;5084521;28;20170;-78
2023/07/22 04:10:13;;;;;;;1999.90;999.90;;;;;;;15.98;100.00;94069.56;5084070;28;20195;-78
2023/07/22 04:12:38;;;;;;;1999.90;999.90;;;;;;;16.16;100.00;94085.19;5084009;28;20165;-78
2023/07/22 04:15:05;;;;;;;1999.90;999.90;;;;;;;16.31;100.00;94110.78;5084241;28;20194;-80
2023/07/22 04:17:31;;;;;;;1999.90;999.90;;;;;;;16.32;100.00;94137.13;5084088;28;20173;-80
2023/07/22 04:19:56;;;;;;;1999.90;999.90;;;;;;;16.42;100.00;94175.19;5084122;28;20161;-79
2023/07/22 04:22:21;;;;;;;1999.90;999.90;;;;;;;16.47;100.00;94209.63;5084017;28;20191;-80
2023/07/22 04:24:48;;;;;;;1999.90;999.90;;;;;;;16.57;100.00;94243.38;5083754;28;20193;-79
2023/07/22 04:27:15;;;;;;;1999.90;999.90;;;;;;;16.88;100.00;94260.31;5084238;28;20172;-81
2023/07/22 04:29:41;;;;;;;1999.90;999.90;;;;;;;17.12;100.00;94274.84;5084460;28;20275;-77
2023/07/22 04:32:08;;;;;;;1999.90;999.90;;;;;;;17.43;100.00;94297.28;5084334;28;20193;-81
2023/07/22 04:34:34;;;;;;;1999.90;999.90;;;;;;;17.73;100.00;94331.97;5083590;28;20177;-82
2023/07/22 04:36:59;;;;;;;1999.90;999.90;;;;;;;18.07;100.00;94358.97;5084275;28;20161;-78
2023/07/22 04:39:25;;;;;;;1999.90;999.90;;;;;;;18.41;100.00;94381.19;5083710;28;20219;-77
2023/07/22 04:41:50;;;;;;;1999.90;999.90;;;;;;;18.67;100.00;94420.06;5084228;28;20172;-77
2023/07/22 04:44:17;;;;;;;1999.90;999.90;;;;;;;18.88;100.00;94446.56;5083583;28;20241;-77
2023/07/22 04:46:42;;;;;;;1999.90;999.90;;;;;;;19.12;100.00;94474.84;5083578;28;20169;-77
2023/07/22 04:49:08;;;;;;;1999.90;999.90;;;;;;;19.33;100.00;94512.47;5083597;28;20195;-77
2023/07/22 04:51:33;;;;;;;1999.90;999.90;;;;;;;19.60;100.00;94536.28;5083528;28;20244;-77
2023/07/22 04:53:59;;;;;;;1999.90;999.90;;;;;;;19.81;100.00;94546.91;5083362;28;20229;-77
2023/07/22 04:56:24;;;;;;;1999.90;999.90;;;;;;;19.82;100.00;94548.44;5083472;28;20214;-80
2023/07/22 04:58:49;;;;;;;1999.90;999.90;;;;;;;19.60;100.00;94550.91;5083564;28;20243;-84
2023/07/22 05:01:15;;;;;;;1999.90;999.90;;;;;;;19.32;100.00;94560.78;5083843;28;20250;-81
2023/07/22 05:03:41;;;;;;;1999.90;999.90;;;;;;;19.18;100.00;94573.38;5083467;28;20231;-81
2023/07/22 05:06:08;;;;;;;1999.90;999.90;;;;;;;19.15;100.00;94573.56;5083468;28;20211;-81
2023/07/22 05:08:34;;;;;;;1999.90;999.90;;;;;;;19.03;100.00;94578.16;5083804;28;20244;-81
2023/07/22 05:11:00;;;;;;;1999.90;999.90;;;;;;;19.02;100.00;94571.06;5087884;28;20166;-81
2023/07/22 05:13:25;;;;;;;1999.90;999.90;;;;;;;18.97;100.00;94579.28;5087219;28;20176;-80
2023/07/22 05:15:50;;;;;;;1999.90;999.90;;;;;;;18.94;100.00;94574.72;5087393;28;20173;-70
2023/07/22 05:18:16;;;;;;;1999.90;999.90;;;;;;;19.00;100.00;94564.50;5087173;28;20165;-72
2023/07/22 05:20:41;;;;;;;1999.90;999.90;;;;;;;19.14;100.00;94572.03;5087567;28;20177;-73
2023/07/22 05:23:07;;;;;;;1999.90;999.90;;;;;;;19.23;100.00;94571.94;5086896;28;20193;-70
2023/07/22 05:25:32;;;;;;;1999.90;999.90;;;;;;;19.35;100.00;94576.44;5087014;28;20173;-70
2023/07/22 05:27:58;;;;;;;1999.90;999.90;;;;;;;19.44;100.00;94577.09;5087144;28;20188;-72
2023/07/22 05:30:23;;;;;;;1999.90;999.90;;;;;;;19.23;100.00;94575.47;5086908;28;20172;-73
2023/07/22 05:32:52;;;;;;;1999.90;999.90;;;;;;;19.15;100.00;94574.34;5087488;28;20173;-81
2023/07/22 05:35:17;;;;;;;1999.90;999.90;;;;;;;19.25;100.00;94575.00;5087449;28;20165;-76
2023/07/22 05:37:42;;;;;;;1999.90;999.90;;;;;;;19.25;100.00;94572.25;5086582;28;20180;-82
2023/07/22 05:40:08;;;;;;;1999.90;999.90;;;;;;;19.15;100.00;94568.03;5086832;28;20237;-81
2023/07/22 05:42:34;;;;;;;1999.90;999.90;;;;;;;19.07;100.00;94572.41;5087316;28;20192;-72
2023/07/22 05:45:00;;;;;;;1999.90;999.90;;;;;;;19.08;100.00;94571.94;5086621;28;20201;-72
2023/07/22 05:47:25;;;;;;;1999.90;999.90;;;;;;;19.17;100.00;94577.38;5086688;28;20169;-77
2023/07/22 05:49:50;;;;;;;1999.90;999.90;;;;;;;19.12;100.00;94580.81;5087017;28;20173;-71
2023/07/22 05:52:16;;;;;;;1999.90;999.90;;;;;;;19.16;100.00;94580.63;5086504;28;20165;-76
2023/07/22 05:54:42;;;;;;;1999.90;999.90;;;;;;;19.06;100.00;94587.50;5087230;28;20165;-77
2023/07/22 05:57:08;;;;;;;1999.90;999.90;;;;;;;19.32;100.00;94583.72;5086764;28;20165;-77
2023/07/22 05:59:35;;;;;;;1999.90;999.90;;;;;;;19.73;100.00;94551.31;5086356;28;20197;-72
2023/07/22 06:02:02;;;;;;;1999.90;999.90;;;;;;;19.86;100.00;94512.97;5086315;28;20192;-73
2023/07/22 06:04:28;;;;;;;1999.90;999.90;;;;;;;19.99;100.00;94490.44;5086729;28;20205;-76
2023/07/22 06:06:53;;;;;;;1999.90;999.90;;;;;;;20.16;100.00;94467.22;5086342;28;20165;-77
2023/07/22 06:09:19;;;;;;;1999.90;999.90;;;;;;;20.25;100.00;94463.53;5086336;28;20164;-74
2023/07/22 06:11:45;;;;;;;1999.90;999.90;;;;;;;20.50;100.00;94465.56;5086683;28;20176;-68
2023/07/22 06:14:10;;;;;;;1999.90;999.90;;;;;;;20.80;100.00;94470.38;5086134;28;20165;-77
2023/07/22 06:16:35;;;;;;;1999.90;999.90;;;;;;;21.30;100.00;94485.44;5085998;28;20161;-81
2023/07/22 06:19:01;;;;;;;1999.90;999.90;;;;;;;21.47;100.00;94519.69;5086000;28;20170;-74
2023/07/22 06:21:26;;;;;;;1999.90;999.90;;;;;;;21.49;100.00;94558.84;5085889;28;20161;-73
2023/07/22 06:23:52;;;;;;;1999.90;999.90;;;;;;;21.65;100.00;94561.00;5086359;28;20275;-68
2023/07/22 06:26:17;;;;;;;1999.90;999.90;;;;;;;22.37;100.00;94603.91;5086419;28;20166;-65
2023/07/22 06:28:42;;;;;;;1999.90;999.90;;;;;;;23.98;100.00;94680.38;5085777;28;20166;-68
2023/07/22 06:31:08;;;;;;;1999.90;999.90;;;;;;;25.20;100.00;94950.00;5086256;28;20189;-70
2023/07/22 06:33:33;;;;;;;1999.90;999.90;;;;;;;25.78;100.00;95286.81;5086324;28;20176;-70
2023/07/22 06:35:59;;;;;;;1999.90;999.90;;;;;;;25.89;100.00;95351.22;5085869;28;20219;-68
2023/07/22 06:38:24;;;;;;;1999.90;999.90;;;;;;;25.61;100.00;95369.94;5086297;28;20200;-66
2023/07/22 06:40:52;;;;;;;1999.90;999.90;;;;;;;24.90;100.00;95379.38;5085602;28;20169;-67
2023/07/22 06:43:17;;;;;;;1999.90;999.90;;;;;;;24.36;100.00;95363.69;5086042;28;20211;-67
2023/07/22 06:45:43;;;;;;;1999.90;999.90;;;;;;;23.79;100.00;95368.38;5085842;28;20173;-69
2023/07/22 06:48:08;;;;;;;1999.90;999.90;;;;;;;23.69;100.00;95366.97;5086012;28;20162;-68
2023/07/22 06:50:33;;;;;;;1999.90;999.90;;;;;;;23.58;100.00;95366.84;5085954;28;20168;-66
2023/07/22 06:52:59;;;;;;;1999.90;999.90;;;;;;;23.43;100.00;95377.28;5085246;28;20235;-67
2023/07/22 06:55:24;;;;;;;1999.90;999.90;;;;;;;23.40;100.00;95378.25;5085330;28;20172;-68
2023/07/22 06:57:49;;;;;;;1999.90;999.90;;;;;;;23.52;100.00;95382.75;5085304;28;20176;-68
2023/07/22 07:00:15;;;;;;;1999.90;999.90;;;;;;;23.78;100.00;95386.38;5085239;28;20196;-68
2023/07/22 07:02:41;;;;;;;1999.90;999.90;;;;;;;24.22;100.00;95386.88;5085072;28;20244;-67
2023/07/22 07:05:06;;;;;;;1999.90;999.90;;;;;;;24.03;100.00;95385.66;5084963;28;20234;-69
2023/07/22 07:07:32;;;;;;;1999.90;999.90;;;;;;;24.18;100.00;95391.94;5085578;28;20173;-66
2023/07/22 07:09:58;;;;;;;1999.90;999.90;;;;;;;24.16;100.00;95392.41;5085005;28;20161;-70
2023/07/22 07:12:23;;;;;;;1999.90;999.90;;;;;;;24.00;100.00;95400.59;5085008;28;20157;-71
2023/07/22 07:14:53;;;;;;;1999.90;999.90;;;;;;;23.72;100.00;95405.06;5084902;28;20168;-66
2023/07/22 07:17:18;;;;;;;1999.90;999.90;;;;;;;23.52;100.00;95410.63;5085341;28;20157;-66
2023/07/22 07:19:44;;;;;;;1999.90;999.90;;;;;;;23.50;100.00;95410.34;5085435;28;20175;-65
2023/07/22 07:22:09;;;;;;;1999.90;999.90;;;;;;;23.73;100.00;95412.16;5084813;28;20200;-69
2023/07/22 07:24:34;;;;;;;1999.90;999.90;;;;;;;24.05;100.00;95416.63;5084653;28;20197;-68
2023/07/22 07:27:00;;;;;;;1999.90;999.90;;;;;;;24.26;100.00;95409.78;5084373;28;20168;-65
2023/07/22 07:29:25;;;;;;;1999.90;999.90;;;;;;;25.26;100.00;95412.94;5085132;28;20196;-72
2023/07/22 07:31:50;;;;;;;1999.90;999.90;;;;;;;26.87;100.00;95412.31;5084497;28;20260;-68
2023/07/22 07:34:15;;;;;;;1999.90;999.90;;;;;;;26.91;100.00;95424.03;5084561;28;20193;-68
2023/07/22 07:36:41;;;;;;;1999.90;999.90;;;;;;;26.56;100.00;95426.53;5084196;28;20172;-69
2023/07/22 07:39:07;;;;;;;1999.90;999.90;;;;;;;26.66;100.00;95429.91;5084720;28;20193;-68
2023/07/22 07:41:33;;;;;;;1999.90;999.90;;;;;;;26.96;100.00;95426.09;5084407;28;20187;-71
2023/07/22 07:43:58;;;;;;;1999.90;999.90;;;;;;;28.31;100.00;95435.28;5084342;28;20197;-75
2023/07/22 07:46:26;;;;;;;1999.90;999.90;;;;;;;29.85;89.20;95427.72;5084392;28;20165;-81
2023/07/22 07:48:55;;;;;;;1999.90;999.90;;;;;;;29.95;84.98;95426.06;5084241;28;20177;-67
2023/07/22 07:51:22;;;;;;;1999.90;999.90;;;;;;;30.45;82.50;95423.44;5084799;28;20172;-67
2023/07/22 07:53:48;;;;;;;1999.90;999.90;;;;;;;30.06;80.47;95431.59;5083807;28;20258;-66
2023/07/22 07:56:14;;;;;;;1999.90;999.90;;;;;;;30.40;76.51;95435.53;5084981;28;20165;-68
2023/07/22 07:58:39;;;;;;;1999.90;999.90;;;;;;;30.87;73.92;95437.47;5084025;28;20206;-69
2023/07/22 08:01:05;;;;;;;1999.90;999.90;;;;;;;32.54;68.07;95436.78;5084599;28;20169;-68
2023/07/22 08:03:32;;;;;;;1999.90;999.90;;;;;;;31.37;67.19;95435.94;5084438;28;20196;-70
2023/07/22 08:05:57;;;;;;;1999.90;999.90;;;;;;;30.70;71.30;95433.34;5084031;28;20165;-68
2023/07/22 08:08:22;;;;;;;1999.90;999.90;;;;;;;31.72;68.08;95430.66;5083908;28;20161;-68
2023/07/22 08:11:04;;;;;;;1999.90;999.90;;;;;;;32.49;63.89;95434.84;5084012;28;20176;-67
2023/07/22 08:13:31;;;;;;;1999.90;999.90;;;;;;;33.29;57.55;95434.81;5084461;28;20170;-68
2023/07/22 08:15:57;;;;;;;1999.90;999.90;;;;;;;32.34;58.50;95434.63;5083908;28;20173;-70
2023/07/22 08:18:23;;;;;;;1999.90;999.90;;;;;;;32.24;60.81;95436.38;5083845;28;20161;-67
2023/07/22 08:20:49;;;;;;;1999.90;999.90;;;;;;;32.25;61.52;95437.88;5084497;28;20212;-72
2023/07/22 08:23:14;;;;;;;1999.90;999.90;;;;;;;33.06;58.85;95436.66;5084366;28;20298;-66
2023/07/22 08:25:40;;;;;;;1999.90;999.90;;;;;;;33.01;57.11;95439.63;5083850;28;20168;-68
2023/07/22 08:28:05;;;;;;;1999.90;999.90;;;;;;;32.88;55.95;95436.84;5083804;28;20245;-69
2023/07/22 08:30:30;;;;;;;1999.90;999.90;;;;;;;33.38;52.43;95431.53;5083768;28;20173;-71
2023/07/22 08:32:56;;;;;;;1999.90;999.90;;;;;;;33.25;54.86;95442.88;5083776;28;20249;-65
2023/07/22 08:35:22;;;;;;;1999.90;999.90;;;;;;;33.56;52.68;95433.41;5083684;28;20165;-65
2023/07/22 08:37:48;;;;;;;1999.90;999.90;;;;;;;33.77;50.89;95436.97;5084058;28;20165;-66
2023/07/22 08:40:13;;;;;;;1999.90;999.90;;;;;;;34.16;50.52;95435.94;5084154;28;20185;-66
2023/07/22 08:42:41;;;;;;;1999.90;999.90;;;;;;;33.52;51.43;95444.31;5084398;28;20166;-67
2023/07/22 08:45:09;;;;;;;1999.90;999.90;;;;;;;33.38;54.54;95434.38;5088035;28;20275;-67
2023/07/22 08:47:39;;;;;;;1999.90;999.90;;;;;;;33.13;52.16;95444.47;5087420;28;20164;-66
2023/07/22 08:50:06;;;;;;;1999.90;999.90;;;;;;;32.72;54.84;95424.56;5087718;28;20214;-65
2023/07/22 08:52:33;;;;;;;1999.90;999.90;;;;;;;33.49;48.37;95434.09;5087434;28;20280;-68
2023/07/22 08:55:00;;;;;;;1999.90;999.90;;;;;;;34.49;43.64;95426.50;5088096;28;20165;-66
2023/07/22 08:57:29;;;;;;;1999.90;999.90;;;;;;;34.47;44.48;95423.44;5088093;28;20168;-66
2023/07/22 08:59:54;;;;;;;1999.90;999.90;;;;;;;35.08;43.68;95427.28;5087731;28;20205;-65
2023/07/22 09:02:21;;;;;;;1999.90;999.90;;;;;;;34.69;43.79;95433.38;5088295;28;20162;-65
2023/07/22 09:04:46;;;;;;;1999.90;999.90;;;;;;;33.94;45.38;95428.03;5087614;28;20219;-66
2023/07/22 09:07:13;;;;;;;1999.90;999.90;;;;;;;34.13;42.81;95439.13;5087616;28;20161;-66
2023/07/22 09:09:39;;;;;;;1999.90;999.90;;;;;;;33.91;43.34;95434.06;5087676;28;20161;-67
2023/07/22 09:12:06;;;;;;;1999.90;999.90;;;;;;;33.48;44.52;95426.13;5087883;28;20203;-68
2023/07/22 09:14:34;;;;;;;1999.90;999.90;;;;;;;33.92;45.35;95429.91;5088089;28;20161;-68
2023/07/22 09:16:59;;;;;;;1999.90;999.90;;;;;;;34.89;40.90;95418.34;5086825;28;20166;-66
2023/07/22 09:19:24;;;;;;;1999.90;999.90;;;;;;;35.25;39.88;95427.50;5087817;28;20184;-66
2023/07/22 09:21:50;;;;;;;1999.90;999.90;;;;;;;35.04;40.28;95421.22;5087337;28;20165;-66
2023/07/22 09:24:24;;;;;;;1999.90;999.90;;;;;;;34.21;42.29;95420.06;5086992;28;20275;-66
2023/07/22 09:26:50;;;;;;;1999.90;999.90;;;;;;;33.70;41.54;95425.56;5087624;28;20170;-66
2023/07/22 09:29:15;;;;;;;1999.90;999.90;;;;;;;34.05;40.42;95421.28;5087670;28;20184;-66
2023/07/22 09:31:53;;;;;;;1999.90;999.90;;;;;;;34.54;37.32;95414.22;5087029;28;20161;-66
2023/07/22 09:34:19;;;;;;;1999.90;999.90;;;;;;;33.61;41.03;95418.31;5087075;28;20167;-66
2023/07/22 09:36:56;;;;;;;1999.90;999.90;;;;;;;34.44;41.02;95409.63;5087220;28;20232;-66
2023/07/22 09:39:24;;;;;;;1999.90;999.90;;;;;;;34.50;38.99;95413.03;5086899;28;20161;-65
2023/07/22 09:41:52;;;;;;;1999.90;999.90;;;;;;;33.74;38.57;95421.06;5087187;28;20165;-65
2023/07/22 09:44:17;;;;;;;1999.90;999.90;;;;;;;34.32;38.97;95409.16;5087158;28;20276;-63
2023/07/22 09:46:49;;;;;;;1999.90;999.90;;;;;;;33.50;40.81;95407.25;5086677;28;20215;-65
2023/07/22 09:49:17;;;;;;;1999.90;999.90;;;;;;;33.90;41.45;95404.19;5087265;28;20168;-66
2023/07/22 09:51:42;;;;;;;1999.90;999.90;;;;;;;33.47;47.60;95408.38;5087099;28;20173;-67
2023/07/22 09:54:08;;;;;;;1999.90;999.90;;;;;;;34.31;43.58;95398.38;5086114;28;20205;-67
2023/07/22 09:56:44;;;;;;;1999.90;999.90;;;;;;;33.76;45.24;95406.34;5086193;28;20254;-68
2023/07/22 09:59:11;;;;;;;1999.90;999.90;;;;;;;33.97;43.68;95400.63;5086760;28;20195;-67
2023/07/22 10:01:39;;;;;;;1999.90;999.90;;;;;;;33.53;42.27;95406.16;5086904;28;20166;-67
2023/07/22 10:04:05;;;;;;;1999.90;999.90;;;;;;;32.58;47.07;95408.94;5086433;28;20204;-67
2023/07/22 10:06:32;;;;;;;1999.90;999.90;;;;;;;32.99;46.36;95397.69;5086241;28;20211;-67
2023/07/22 10:09:03;;;;;;;1999.90;999.90;;;;;;;32.80;46.27;95402.75;5086195;28;20175;-67
2023/07/22 10:11:30;;;;;;;1999.90;999.90;;;;;;;33.16;43.86;95395.22;5086716;28;20177;-67
2023/07/22 10:13:55;;;;;;;1999.90;999.90;;;;;;;33.40;44.63;95397.72;5086243;28;20177;-66
2023/07/22 10:16:22;;;;;;;1999.90;999.90;;;;;;;34.15;40.69;95385.44;5086134;28;20195;-66
2023/07/22 10:18:48;;;;;;;1999.90;999.90;;;;;;;33.84;39.74;95387.31;5086608;28;20173;-66
2023/07/22 10:21:14;;;;;;;1999.90;999.90;;;;;;;33.73;41.63;95391.19;5086112;28;20169;-66
2023/07/22 10:23:40;;;;;;;1999.90;999.90;;;;;;;33.57;42.64;95389.56;5085883;28;20196;-67
2023/07/22 10:26:07;;;;;;;1999.90;999.90;;;;;;;31.60;46.68;95383.41;5086022;28;20169;-67
2023/07/22 10:28:32;;;;;;;1999.90;999.90;;;;;;;30.67;51.59;95383.63;5085768;28;20206;-67
2023/07/22 10:30:59;;;;;;;1999.90;999.90;;;;;;;31.55;50.16;95382.19;5086306;28;20244;-67
2023/07/22 10:33:26;;;;;;;1999.90;999.90;;;;;;;30.93;49.77;95380.94;5085797;28;20166;-66
2023/07/22 10:36:03;;;;;;;1999.90;999.90;;;;;;;30.13;51.47;95380.25;5085312;28;20198;-70
2023/07/22 10:38:29;;;;;;;1999.90;999.90;;;;;;;29.55;55.94;95379.13;5086432;28;20214;-69
2023/07/22 10:40:55;;;;;;;1999.90;999.90;;;;;;;29.38;56.28;95384.16;5085581;28;20193;-68
2023/07/22 10:43:29;;;;;;;1999.90;999.90;;;;;;;29.28;58.63;95380.19;5085544;28;20189;-66
2023/07/22 10:45:56;;;;;;;1999.90;999.90;;;;;;;28.77;58.93;95381.09;5085322;28;20218;-70